Time;durP1;ratioP1;P1;durP2;ratioP2;P2;SDS_P1;SDS_P2;PMS_P1;PMS_P2;Temp;Humidity;BMP_temperature;BMP_pressure;BME280_temperature;BME280_humidity;BME280_pressure;Samples;Min_cycle;Max_cycle;Signal;HPM_P1;HPM_P2
2022/12/30 00:00:52;;;;;;;;;;;;;;;9.73;67.16;100514.31;5065959;28;20375;-60
2022/12/30 00:03:18;;;;;;;;;;;;;;;9.72;66.98;100506.50;5086365;28;19924;-61
2022/12/30 00:05:43;;;;;;;;;;;;;;;9.70;66.83;100509.22;5088171;28;19916;-65
2022/12/30 00:08:45;;;;;;;;;;;;;;;9.61;66.57;100507.97;5068671;28;20028;-59
2022/12/30 00:10:54;;;;;;;;;;;;;;;9.56;66.39;100510.00;5080773;28;19969;-61
2022/12/30 00:35:13;;;;;;;;;;;;;;;9.63;64.86;100547.28;5084894;28;19966;-64
2022/12/30 00:37:38;;;;;;;;;;;;;;;9.66;65.01;100555.00;5085179;28;19959;-58
2022/12/30 00:40:04;;;;;;;;;;;;;;;9.64;64.94;100551.59;5080733;28;19928;-59
2022/12/30 00:45:13;;;;;;;;;;;;;;;9.64;64.61;100562.09;5083774;28;20421;-64
2022/12/30 00:47:38;;;;;;;;;;;;;;;9.61;64.52;100563.13;5083900;28;19924;-64
2022/12/30 00:58:16;;;;;;;;;;;;;;;9.51;63.74;100576.88;5082931;28;19932;-61
2022/12/30 01:00:41;;;;;;;;;;;;;;;9.46;63.59;100588.47;5078401;28;19924;-65
2022/12/30 01:03:07;;;;;;;;;;;;;;;9.41;63.39;100587.91;5063869;28;19924;-58
2022/12/30 01:05:32;;;;;;;;;;;;;;;9.40;63.38;100596.69;5086169;28;19924;-61
2022/12/30 01:07:57;;;;;;;;;;;;;;;9.36;63.15;100589.91;5070778;28;20563;-61
2022/12/30 01:10:23;;;;;;;;;;;;;;;9.33;63.17;100607.63;5071885;28;19929;-60
2022/12/30 01:12:48;;;;;;;;;;;;;;;9.30;62.95;100596.34;5085015;28;19927;-64
2022/12/30 01:15:13;;;;;;;;;;;;;;;9.29;63.23;100605.16;5082392;28;19975;-60
2022/12/30 01:17:39;;;;;;;;;;;;;;;9.27;62.90;100601.78;5083442;28;19966;-62
2022/12/30 01:20:05;;;;;;;;;;;;;;;9.22;62.85;100606.44;5081253;28;20728;-61
2022/12/30 01:22:30;;;;;;;;;;;;;;;9.18;62.79;100618.03;5080465;28;20527;-64
2022/12/30 01:24:55;;;;;;;;;;;;;;;9.19;62.74;100621.50;5078658;28;19924;-63
2022/12/30 01:27:21;;;;;;;;;;;;;;;9.20;62.79;100620.56;5087841;28;19924;-61
2022/12/30 01:29:46;;;;;;;;;;;;;;;9.16;62.71;100619.91;5081532;28;19920;-59
2022/12/30 01:32:16;;;;;;;;;;;;;;;9.17;62.75;100625.97;5084703;28;19924;-61
2022/12/30 01:34:42;;;;;;;;;;;;;;;9.14;63.09;100641.00;5083618;28;19995;-59
2022/12/30 01:37:07;;;;;;;;;;;;;;;9.13;62.92;100641.91;5080574;28;20622;-61
2022/12/30 01:39:33;;;;;;;;;;;;;;;9.14;63.16;100643.63;5083347;28;20431;-59
2022/12/30 01:41:59;;;;;;;;;;;;;;;9.09;63.24;100643.00;5084291;28;20414;-58
2022/12/30 01:44:43;;;;;;;;;;;;;;;9.04;63.40;100652.06;5085908;28;19935;-60
2022/12/30 01:47:10;;;;;;;;;;;;;;;9.04;63.46;100639.75;5082007;28;20679;-61
2022/12/30 01:49:39;;;;;;;;;;;;;;;9.01;63.55;100632.03;5067808;28;19920;-61
2022/12/30 01:52:04;;;;;;;;;;;;;;;9.00;63.59;100627.72;5083705;28;19912;-58
2022/12/30 01:54:30;;;;;;;;;;;;;;;8.99;63.71;100633.94;5078772;28;20688;-59
2022/12/30 01:56:55;;;;;;;;;;;;;;;9.00;63.65;100646.09;5082986;28;20089;-60
2022/12/30 01:59:21;;;;;;;;;;;;;;;8.98;63.70;100651.44;5080659;28;20031;-58
2022/12/30 02:01:47;;;;;;;;;;;;;;;8.96;63.67;100655.06;5080768;28;19920;-59
2022/12/30 02:04:15;;;;;;;;;;;;;;;8.89;63.75;100658.94;5083587;28;19923;-59
2022/12/30 02:06:43;;;;;;;;;;;;;;;8.88;64.00;100667.72;5083899;28;19920;-63
2022/12/30 02:09:08;;;;;;;;;;;;;;;8.86;63.91;100657.34;5082303;28;20333;-64
2022/12/30 02:11:34;;;;;;;;;;;;;;;8.86;63.92;100673.06;5081180;28;20351;-61
2022/12/30 02:13:59;;;;;;;;;;;;;;;8.79;64.02;100669.91;5078318;28;19955;-58
2022/12/30 02:16:25;;;;;;;;;;;;;;;8.80;63.88;100673.38;5079345;28;19961;-58
2022/12/30 02:18:51;;;;;;;;;;;;;;;8.82;64.06;100677.63;5081495;28;19919;-63
2022/12/30 02:21:26;;;;;;;;;;;;;;;8.83;63.87;100687.22;5084343;28;19925;-62
2022/12/30 02:23:54;;;;;;;;;;;;;;;8.78;63.98;100689.22;5081926;28;19920;-60
2022/12/30 02:26:19;;;;;;;;;;;;;;;8.81;63.97;100698.69;5082707;28;19919;-62
2022/12/30 02:29:03;;;;;;;;;;;;;;;8.80;64.14;100695.22;5083550;28;19916;-59
2022/12/30 02:31:37;;;;;;;;;;;;;;;8.73;64.28;100706.94;5079804;28;19916;-61
2022/12/30 02:34:19;;;;;;;;;;;;;;;8.73;64.38;100714.81;5080104;28;19931;-62
2022/12/30 02:37:03;;;;;;;;;;;;;;;8.70;64.45;100717.59;5076580;28;19920;-63
2022/12/30 02:39:37;;;;;;;;;;;;;;;8.69;64.62;100715.91;5080595;28;19956;-62
2022/12/30 02:45:13;;;;;;;;;;;;;;;8.67;64.95;100730.88;5079925;28;19946;-60
2022/12/30 02:47:40;;;;;;;;;;;;;;;8.66;64.76;100737.88;5075799;28;19916;-61
2022/12/30 02:52:52;;;;;;;;;;;;;;;8.68;64.85;100727.34;5085800;28;19991;-61
2022/12/30 02:55:17;;;;;;;;;;;;;;;8.65;65.13;100737.97;5063845;28;19936;-60
2022/12/30 02:57:42;;;;;;;;;;;;;;;8.62;65.11;100738.97;5084724;28;19920;-61
2022/12/30 03:06:15;;;;;;;;;;;;;;;8.73;64.52;100748.91;5082322;28;19932;-64
2022/12/30 03:08:40;;;;;;;;;;;;;;;8.76;64.51;100751.41;5082449;28;19916;-60
2022/12/30 03:11:15;;;;;;;;;;;;;;;8.80;64.36;100741.59;5079509;28;19920;-61
2022/12/30 03:13:53;;;;;;;;;;;;;;;8.83;63.90;100744.94;5080440;28;19925;-61
2022/12/30 03:16:37;;;;;;;;;;;;;;;8.80;63.93;100738.97;5076791;28;20047;-62
2022/12/30 03:19:04;;;;;;;;;;;;;;;8.74;63.71;100737.50;5082079;28;20300;-60
2022/12/30 03:21:31;;;;;;;;;;;;;;;8.72;63.73;100746.38;5078702;28;20014;-60
2022/12/30 03:27:03;;;;;;;;;;;;;;;8.64;63.92;100750.22;5077713;28;20010;-59
2022/12/30 03:29:34;;;;;;;;;;;;;;;8.64;63.98;100757.25;5087667;28;19920;-61
2022/12/30 03:31:59;;;;;;;;;;;;;;;8.62;64.14;100757.31;5088772;28;19919;-60
2022/12/30 03:34:25;;;;;;;;;;;;;;;8.64;63.90;100767.75;5086675;28;19924;-62
2022/12/30 03:36:54;;;;;;;;;;;;;;;8.68;63.77;100766.69;5076544;28;20059;-60
2022/12/30 03:39:23;;;;;;;;;;;;;;;8.67;63.80;100771.06;5076864;28;20292;-62
2022/12/30 03:41:49;;;;;;;;;;;;;;;8.65;63.46;100774.69;5083500;28;19927;-60
2022/12/30 03:44:16;;;;;;;;;;;;;;;8.67;63.36;100770.22;5082581;28;19931;-64
2022/12/30 03:46:43;;;;;;;;;;;;;;;8.68;63.22;100772.78;5083608;28;20062;-64
2022/12/30 03:49:09;;;;;;;;;;;;;;;8.70;63.01;100770.06;5088738;28;19947;-62
2022/12/30 03:51:34;;;;;;;;;;;;;;;8.69;62.89;100768.38;5085566;28;19920;-64
2022/12/30 03:53:59;;;;;;;;;;;;;;;8.67;62.95;100780.72;5083954;28;19916;-63
2022/12/30 03:56:25;;;;;;;;;;;;;;;8.71;62.97;100779.63;5080635;28;19924;-64
2022/12/30 03:58:50;;;;;;;;;;;;;;;8.69;63.01;100779.72;5083870;28;20575;-64
2022/12/30 04:01:15;;;;;;;;;;;;;;;8.67;62.92;100791.22;5081826;28;19923;-63
2022/12/30 04:03:41;;;;;;;;;;;;;;;8.63;63.04;100784.41;5085156;28;19924;-62
2022/12/30 04:08:57;;;;;;;;;;;;;;;8.50;63.37;100790.25;5086074;28;19974;-65
2022/12/30 04:11:22;;;;;;;;;;;;;;;8.41;63.41;100801.16;5080795;28;19928;-62
2022/12/30 04:13:48;;;;;;;;;;;;;;;8.37;63.62;100794.38;5083883;28;19920;-64
2022/12/30 04:16:14;;;;;;;;;;;;;;;8.34;63.74;100802.38;5085300;28;20450;-64
2022/12/30 04:18:39;;;;;;;;;;;;;;;8.29;63.87;100799.97;5083729;28;20038;-64
2022/12/30 04:21:04;;;;;;;;;;;;;;;8.24;63.80;100804.56;5084617;28;20295;-62
2022/12/30 04:23:30;;;;;;;;;;;;;;;8.21;64.00;100805.56;5086743;28;19920;-63
2022/12/30 04:25:55;;;;;;;;;;;;;;;8.14;64.20;100809.38;5084716;28;19977;-63
2022/12/30 04:28:20;;;;;;;;;;;;;;;8.15;64.03;100816.34;5078968;28;20386;-65
2022/12/30 04:30:47;;;;;;;;;;;;;;;8.11;64.08;100816.56;5084225;28;19920;-61
2022/12/30 04:33:12;;;;;;;;;;;;;;;8.06;64.24;100824.63;5086250;28;20397;-63
2022/12/30 04:35:38;;;;;;;;;;;;;;;8.04;64.16;100818.63;5082120;28;20725;-64
2022/12/30 04:38:03;;;;;;;;;;;;;;;8.03;64.08;100822.16;5086755;28;19924;-61
2022/12/30 04:40:28;;;;;;;;;;;;;;;8.00;64.19;100824.91;5085791;28;20023;-63
2022/12/30 04:42:53;;;;;;;;;;;;;;;7.96;64.27;100832.06;5077761;28;20445;-63
2022/12/30 04:45:19;;;;;;;;;;;;;;;7.93;64.16;100826.97;5083604;28;19967;-64
2022/12/30 04:47:44;;;;;;;;;;;;;;;7.90;64.21;100822.72;5084580;28;19942;-63
2022/12/30 04:50:10;;;;;;;;;;;;;;;7.89;64.19;100822.75;5085982;28;19958;-62
2022/12/30 04:52:36;;;;;;;;;;;;;;;7.87;64.42;100833.31;5082679;28;19955;-65
2022/12/30 04:55:01;;;;;;;;;;;;;;;7.85;64.32;100832.53;5083537;28;19916;-64
2022/12/30 04:57:26;;;;;;;;;;;;;;;7.83;64.31;100834.38;5084346;28;19923;-61
2022/12/30 04:59:51;;;;;;;;;;;;;;;7.81;64.37;100838.81;5079472;28;19921;-60
2022/12/30 05:02:17;;;;;;;;;;;;;;;7.81;64.36;100833.59;5085783;28;19991;-61
2022/12/30 05:04:42;;;;;;;;;;;;;;;7.78;64.51;100839.81;5070192;28;20463;-62
2022/12/30 05:07:07;;;;;;;;;;;;;;;7.78;64.37;100849.47;5084098;28;19924;-63
2022/12/30 05:09:33;;;;;;;;;;;;;;;7.75;64.64;100854.84;5078201;28;19978;-61
2022/12/30 05:11:58;;;;;;;;;;;;;;;7.72;64.42;100865.44;5086274;28;19920;-59
2022/12/30 05:14:23;;;;;;;;;;;;;;;7.66;64.92;100865.69;5080203;28;19917;-62
2022/12/30 05:16:49;;;;;;;;;;;;;;;7.65;64.95;100858.75;5083834;28;19920;-60
2022/12/30 05:19:14;;;;;;;;;;;;;;;7.62;65.23;100871.09;5081259;28;20390;-61
2022/12/30 05:21:39;;;;;;;;;;;;;;;7.61;65.20;100884.22;5080729;28;19973;-62
2022/12/30 05:26:49;;;;;;;;;;;;;;;7.56;65.48;100883.59;5083975;28;19962;-62
2022/12/30 05:29:14;;;;;;;;;;;;;;;7.52;65.56;100895.94;5082920;28;19924;-65
2022/12/30 05:31:40;;;;;;;;;;;;;;;7.52;65.63;100903.81;5076845;28;19923;-62
2022/12/30 05:34:05;;;;;;;;;;;;;;;7.49;65.79;100901.31;5080504;28;19923;-60
2022/12/30 05:36:30;;;;;;;;;;;;;;;7.49;65.74;100906.53;5082885;28;20422;-63
2022/12/30 05:38:55;;;;;;;;;;;;;;;7.50;65.72;100912.66;5082644;28;19935;-59
2022/12/30 05:41:21;;;;;;;;;;;;;;;7.51;65.83;100914.34;5081296;28;19928;-62
2022/12/30 05:43:47;;;;;;;;;;;;;;;7.48;65.90;100912.72;5078661;28;20003;-62
2022/12/30 05:46:12;;;;;;;;;;;;;;;7.46;65.83;100911.94;5078614;28;20430;-63
2022/12/30 05:48:38;;;;;;;;;;;;;;;7.44;65.84;100911.16;5082011;28;19950;-64
2022/12/30 05:51:03;;;;;;;;;;;;;;;7.42;66.00;100923.44;5078998;28;19920;-62
2022/12/30 05:53:28;;;;;;;;;;;;;;;7.40;65.76;100926.13;5079257;28;19924;-63
2022/12/30 05:55:54;;;;;;;;;;;;;;;7.41;66.03;100926.97;5082437;28;19924;-60
2022/12/30 05:58:19;;;;;;;;;;;;;;;7.39;65.83;100923.56;5082429;28;19963;-61
2022/12/30 06:00:44;;;;;;;;;;;;;;;7.39;66.07;100927.06;5080330;28;19924;-63
2022/12/30 06:03:10;;;;;;;;;;;;;;;7.39;65.78;100934.03;5081151;28;19960;-63
2022/12/30 06:05:35;;;;;;;;;;;;;;;7.39;65.69;100936.66;5083288;28;20019;-63
2022/12/30 06:08:01;;;;;;;;;;;;;;;7.36;65.79;100944.63;5079330;28;20043;-61
2022/12/30 06:10:26;;;;;;;;;;;;;;;7.35;65.83;100937.69;5081107;28;19912;-62
2022/12/30 06:12:51;;;;;;;;;;;;;;;7.35;65.70;100940.31;5079118;28;20015;-62
2022/12/30 06:15:16;;;;;;;;;;;;;;;7.35;65.61;100940.31;5076319;28;20530;-60
2022/12/30 06:17:42;;;;;;;;;;;;;;;7.30;65.70;100951.84;5084520;28;19919;-61
2022/12/30 06:20:07;;;;;;;;;;;;;;;7.31;65.75;100960.53;5080415;28;20319;-59
2022/12/30 06:22:33;;;;;;;;;;;;;;;7.27;65.81;100957.19;5079704;28;20460;-61
2022/12/30 06:24:58;;;;;;;;;;;;;;;7.27;65.71;100962.44;5083360;28;19952;-62
2022/12/30 06:27:23;;;;;;;;;;;;;;;7.25;65.76;100972.09;5083400;28;19920;-62
2022/12/30 06:29:49;;;;;;;;;;;;;;;7.24;65.74;100969.56;5080268;28;20438;-62
2022/12/30 06:32:14;;;;;;;;;;;;;;;7.20;65.76;100974.03;5081497;28;19920;-64
2022/12/30 06:34:40;;;;;;;;;;;;;;;7.20;65.96;100979.28;5084265;28;19946;-62
2022/12/30 06:37:05;;;;;;;;;;;;;;;7.19;65.96;100988.03;5068891;28;19955;-61
2022/12/30 06:39:32;;;;;;;;;;;;;;;7.16;65.70;100988.19;5066115;28;20327;-63
2022/12/30 06:41:57;;;;;;;;;;;;;;;7.16;65.69;100993.41;5077820;28;19927;-59
2022/12/30 06:44:23;;;;;;;;;;;;;;;7.13;65.66;100998.78;5084532;28;19932;-63
2022/12/30 06:46:48;;;;;;;;;;;;;;;7.14;65.70;101006.56;5080968;28;19924;-62
2022/12/30 06:49:13;;;;;;;;;;;;;;;7.12;65.88;101007.53;5082686;28;19924;-61
2022/12/30 06:51:39;;;;;;;;;;;;;;;7.12;65.65;101012.75;5079128;28;19974;-62
2022/12/30 06:54:04;;;;;;;;;;;;;;;7.13;65.42;101014.47;5083622;28;20351;-63
2022/12/30 06:56:30;;;;;;;;;;;;;;;7.10;65.51;101025.91;5082787;28;19921;-63
2022/12/30 06:58:55;;;;;;;;;;;;;;;7.06;65.70;101023.47;5066858;28;19966;-61
2022/12/30 07:01:20;;;;;;;;;;;;;;;7.06;65.81;101020.84;5077588;28;19921;-60
2022/12/30 07:03:46;;;;;;;;;;;;;;;7.08;65.70;101038.22;5082880;28;19920;-60
2022/12/30 07:06:11;;;;;;;;;;;;;;;7.09;65.44;101033.81;5082135;28;19939;-63
2022/12/30 07:08:36;;;;;;;;;;;;;;;7.08;65.51;101035.59;5083467;28;19947;-62
2022/12/30 07:11:02;;;;;;;;;;;;;;;7.07;65.58;101035.63;5079900;28;19920;-63
2022/12/30 07:13:28;;;;;;;;;;;;;;;7.05;65.70;101040.06;5082100;28;19916;-62
2022/12/30 07:15:53;;;;;;;;;;;;;;;7.03;65.56;101044.53;5078629;28;19932;-62
2022/12/30 07:18:19;;;;;;;;;;;;;;;7.03;65.64;101065.47;5083886;28;20007;-60
2022/12/30 07:20:44;;;;;;;;;;;;;;;6.98;65.56;101063.88;5080937;28;19928;-60
2022/12/30 07:23:09;;;;;;;;;;;;;;;6.98;65.57;101063.00;5081205;28;19924;-63
2022/12/30 07:25:35;;;;;;;;;;;;;;;6.96;65.77;101073.53;5081813;28;19927;-62
2022/12/30 07:28:01;;;;;;;;;;;;;;;6.96;65.92;101075.28;5074894;28;19920;-63
2022/12/30 07:30:27;;;;;;;;;;;;;;;6.91;65.79;101072.84;5081048;28;19916;-60
2022/12/30 07:32:52;;;;;;;;;;;;;;;6.89;65.70;101085.13;5078179;28;19930;-61
2022/12/30 07:35:17;;;;;;;;;;;;;;;6.90;65.91;101089.44;5082295;28;19932;-60
2022/12/30 07:37:43;;;;;;;;;;;;;;;6.89;65.89;101090.34;5082458;28;19935;-63
2022/12/30 07:40:08;;;;;;;;;;;;;;;6.85;66.04;101097.47;5080177;28;20015;-63
2022/12/30 07:42:34;;;;;;;;;;;;;;;6.86;65.82;101106.19;5081394;28;19992;-62
2022/12/30 07:44:59;;;;;;;;;;;;;;;6.88;65.95;101100.88;5064796;28;19931;-63
2022/12/30 07:47:24;;;;;;;;;;;;;;;6.90;65.81;101094.69;5081862;28;19924;-62
2022/12/30 07:49:50;;;;;;;;;;;;;;;6.84;65.92;101093.13;5080083;28;19928;-62
2022/12/30 07:52:15;;;;;;;;;;;;;;;6.83;65.78;101095.81;5079649;28;19923;-63
2022/12/30 07:54:40;;;;;;;;;;;;;;;6.84;66.10;101105.38;5077112;28;19936;-62
2022/12/30 07:57:06;;;;;;;;;;;;;;;6.81;66.24;101102.88;5083428;28;19920;-63
2022/12/30 07:59:31;;;;;;;;;;;;;;;6.80;66.16;101111.63;5081711;28;19920;-63
2022/12/30 08:01:56;;;;;;;;;;;;;;;6.79;66.05;101112.53;5072418;28;19924;-62
2022/12/30 08:04:21;;;;;;;;;;;;;;;6.79;66.13;101118.63;5076626;28;20085;-63
2022/12/30 08:06:47;;;;;;;;;;;;;;;6.79;65.96;101120.38;5080081;28;19924;-63
2022/12/30 08:09:12;;;;;;;;;;;;;;;6.81;66.27;101129.03;5063545;28;19920;-59
2022/12/30 08:11:38;;;;;;;;;;;;;;;6.82;65.97;101126.34;5069853;28;19931;-60
2022/12/30 08:14:03;;;;;;;;;;;;;;;6.81;66.12;101123.78;5088406;28;19927;-61
2022/12/30 08:16:28;;;;;;;;;;;;;;;6.82;66.16;101128.13;5081313;28;19964;-61
2022/12/30 08:18:54;;;;;;;;;;;;;;;6.85;66.15;101136.69;5083737;28;20440;-61
2022/12/30 08:21:19;;;;;;;;;;;;;;;6.84;66.23;101134.16;5083067;28;20735;-60
2022/12/30 08:23:46;;;;;;;;;;;;;;;6.86;66.15;101137.56;5084401;28;20577;-59
2022/12/30 08:26:14;;;;;;;;;;;;;;;6.84;66.22;101145.47;5085430;28;19927;-61
2022/12/30 08:28:40;;;;;;;;;;;;;;;6.85;66.08;101143.72;5079948;28;19967;-61
2022/12/30 08:31:09;;;;;;;;;;;;;;;6.89;65.91;101147.91;5081082;28;20001;-63
2022/12/30 08:33:35;;;;;;;;;;;;;;;6.93;66.12;101153.91;5081432;28;19963;-63
2022/12/30 08:36:01;;;;;;;;;;;;;;;6.94;66.13;101156.44;5077759;28;20028;-60
2022/12/30 08:38:27;;;;;;;;;;;;;;;6.97;66.10;101151.13;5068796;28;19920;-62
2022/12/30 08:40:52;;;;;;;;;;;;;;;7.01;66.05;101147.50;5078433;28;20284;-63
2022/12/30 08:43:18;;;;;;;;;;;;;;;7.06;66.09;101151.69;5085369;28;19920;-60
2022/12/30 08:45:44;;;;;;;;;;;;;;;7.08;66.06;101147.25;5063501;28;20362;-60
2022/12/30 08:48:09;;;;;;;;;;;;;;;7.11;65.99;101158.44;5086353;28;19985;-63
2022/12/30 08:50:34;;;;;;;;;;;;;;;7.13;65.87;101163.63;5078881;28;19924;-63
2022/12/30 08:53:00;;;;;;;;;;;;;;;7.17;65.67;101163.47;5073692;28;20506;-63
2022/12/30 08:55:27;;;;;;;;;;;;;;;7.21;65.69;101155.50;5084616;28;20002;-62
2022/12/30 08:57:52;;;;;;;;;;;;;;;7.24;65.57;101158.84;5087630;28;19919;-62
2022/12/30 09:00:18;;;;;;;;;;;;;;;7.26;65.42;101164.91;5082977;28;19923;-62
2022/12/30 09:02:43;;;;;;;;;;;;;;;7.29;65.43;101166.53;5084448;28;20019;-62
2022/12/30 09:05:08;;;;;;;;;;;;;;;7.31;65.46;101172.56;5087043;28;19940;-59
2022/12/30 09:07:33;;;;;;;;;;;;;;;7.32;65.45;101172.53;5088558;28;20009;-63
2022/12/30 09:09:59;;;;;;;;;;;;;;;7.32;65.55;101180.38;5085609;28;19950;-62
2022/12/30 09:12:24;;;;;;;;;;;;;;;7.30;65.72;101179.59;5083580;28;20414;-59
2022/12/30 09:14:49;;;;;;;;;;;;;;;7.32;65.73;101185.63;5086323;28;19920;-60
2022/12/30 09:17:15;;;;;;;;;;;;;;;7.40;65.62;101200.19;5084651;28;20391;-64
2022/12/30 09:19:40;;;;;;;;;;;;;;;7.47;65.52;101191.19;5086574;28;19924;-62
2022/12/30 09:22:05;;;;;;;;;;;;;;;7.52;65.32;101186.63;5088586;28;19931;-61
2022/12/30 09:24:31;;;;;;;;;;;;;;;7.54;65.18;101187.41;5084265;28;20357;-59
2022/12/30 09:26:56;;;;;;;;;;;;;;;7.54;64.92;101190.03;5079016;28;19916;-63
2022/12/30 09:29:21;;;;;;;;;;;;;;;7.55;65.12;101202.22;5087429;28;20446;-62
2022/12/30 09:31:47;;;;;;;;;;;;;;;7.56;65.04;101198.69;5087730;28;19921;-61
2022/12/30 09:34:12;;;;;;;;;;;;;;;7.57;64.93;101197.78;5082504;28;19920;-58
2022/12/30 09:36:37;;;;;;;;;;;;;;;7.56;65.40;101193.47;5085410;28;20003;-64
2022/12/30 09:39:03;;;;;;;;;;;;;;;7.56;65.31;101200.47;5087272;28;19935;-60
2022/12/30 09:44:48;;;;;;;;;;;;;;;7.55;65.03;101194.38;5089990;28;20445;-61
2022/12/30 09:47:20;;;;;;;;;;;;;;;7.54;65.04;101190.03;5081899;28;19923;-59
2022/12/30 09:49:50;;;;;;;;;;;;;;;7.54;65.19;101189.19;5084334;28;19912;-58
2022/12/30 09:52:34;;;;;;;;;;;;;;;7.57;65.27;101186.44;5090820;28;19920;-63
2022/12/30 09:55:02;;;;;;;;;;;;;;;7.59;65.08;101192.47;5080583;28;19970;-60
2022/12/30 09:57:31;;;;;;;;;;;;;;;7.61;65.23;101196.75;5085078;28;20011;-60
2022/12/30 10:00:15;;;;;;;;;;;;;;;7.61;65.12;101191.53;5080577;28;19918;-62
2022/12/30 10:03:00;;;;;;;;;;;;;;;7.61;65.02;101190.66;5083594;28;19923;-61
2022/12/30 10:05:34;;;;;;;;;;;;;;;7.62;65.00;101185.38;5084108;28;19920;-61
2022/12/30 10:08:07;;;;;;;;;;;;;;;7.65;65.19;101188.75;5089665;28;20383;-59
2022/12/30 10:10:46;;;;;;;;;;;;;;;7.65;65.20;101180.91;5082124;28;19916;-61
2022/12/30 10:13:12;;;;;;;;;;;;;;;7.65;65.24;101175.66;5087365;28;20433;-60
2022/12/30 10:15:51;;;;;;;;;;;;;;;7.65;65.03;101170.44;5064787;28;19920;-61
2022/12/30 10:18:33;;;;;;;;;;;;;;;7.71;65.22;101178.94;5084192;28;20052;-62
2022/12/30 10:21:12;;;;;;;;;;;;;;;7.74;64.83;101170.09;5083787;28;19920;-61
2022/12/30 10:23:37;;;;;;;;;;;;;;;7.79;64.93;101170.75;5084083;28;19916;-59
2022/12/30 10:26:05;;;;;;;;;;;;;;;7.79;64.83;101168.13;5086499;28;19912;-60
2022/12/30 10:28:35;;;;;;;;;;;;;;;7.80;64.69;101167.22;5087757;28;20606;-58
2022/12/30 10:31:00;;;;;;;;;;;;;;;7.82;64.51;101168.00;5088461;28;19912;-62
2022/12/30 10:33:27;;;;;;;;;;;;;;;7.85;64.47;101154.78;5085946;28;19935;-61
2022/12/30 10:36:01;;;;;;;;;;;;;;;7.86;64.42;101156.50;5077277;28;20402;-59
2022/12/30 10:38:30;;;;;;;;;;;;;;;7.89;64.24;101150.28;5083301;28;19924;-61
2022/12/30 10:41:01;;;;;;;;;;;;;;;7.92;64.43;101148.41;5087711;28;20368;-60
2022/12/30 10:43:39;;;;;;;;;;;;;;;7.92;64.41;101148.41;5083427;28;20404;-63
2022/12/30 10:46:23;;;;;;;;;;;;;;;7.96;64.12;101148.25;5084265;28;19978;-62
2022/12/30 10:48:51;;;;;;;;;;;;;;;7.96;64.05;101136.03;5080508;28;19999;-63
2022/12/30 10:51:17;;;;;;;;;;;;;;;7.96;64.11;101135.16;5087828;28;20383;-61
2022/12/30 10:53:47;;;;;;;;;;;;;;;8.00;64.36;101139.38;5081893;28;19916;-63
2022/12/30 10:56:23;;;;;;;;;;;;;;;8.02;63.99;101125.28;5084998;28;20026;-64
2022/12/30 10:58:49;;;;;;;;;;;;;;;8.04;64.12;101127.84;5084132;28;20478;-60
2022/12/30 11:01:18;;;;;;;;;;;;;;;8.05;63.77;101124.31;5063279;28;19928;-62
2022/12/30 11:03:56;;;;;;;;;;;;;;;8.09;63.71;101115.44;5077938;28;19983;-61
2022/12/30 11:06:32;;;;;;;;;;;;;;;8.07;63.94;101112.84;5083386;28;20388;-61
2022/12/30 11:09:12;;;;;;;;;;;;;;;8.11;63.83;101113.56;5085785;28;19923;-62
2022/12/30 11:14:45;;;;;;;;;;;;;;;8.13;63.52;101116.16;5086046;28;19919;-61
2022/12/30 11:17:13;;;;;;;;;;;;;;;8.16;63.56;101119.47;5080384;28;19920;-63
2022/12/30 11:19:39;;;;;;;;;;;;;;;8.15;63.50;101128.25;5091243;28;19986;-61
2022/12/30 11:22:04;;;;;;;;;;;;;;;8.18;63.35;101122.91;5088587;28;20387;-60
2022/12/30 11:24:29;;;;;;;;;;;;;;;8.17;63.43;101126.44;5087071;28;19943;-62
2022/12/30 11:26:55;;;;;;;;;;;;;;;8.19;63.63;101123.75;5084082;28;20015;-61
2022/12/30 11:29:21;;;;;;;;;;;;;;;8.22;63.53;101128.84;5076855;28;20399;-60
2022/12/30 11:31:48;;;;;;;;;;;;;;;8.22;63.61;101127.09;5089647;28;19969;-63
2022/12/30 11:34:19;;;;;;;;;;;;;;;8.23;63.44;101122.69;5084831;28;19916;-62
2022/12/30 11:36:44;;;;;;;;;;;;;;;8.27;63.36;101119.03;5085632;28;19921;-62
2022/12/30 11:39:09;;;;;;;;;;;;;;;8.30;63.47;101112.81;5080874;28;19936;-62
2022/12/30 11:41:55;;;;;;;;;;;;;;;8.34;63.66;101114.38;5071631;28;19924;-63
2022/12/30 11:44:20;;;;;;;;;;;;;;;8.36;63.42;101112.56;5085505;28;19916;-60
2022/12/30 11:46:51;;;;;;;;;;;;;;;8.39;63.26;101122.91;5082539;28;20337;-62
2022/12/30 11:49:19;;;;;;;;;;;;;;;8.42;63.30;101117.53;5078029;28;20287;-60
2022/12/30 11:51:52;;;;;;;;;;;;;;;8.46;63.05;101120.88;5087628;28;19921;-60
2022/12/30 11:54:20;;;;;;;;;;;;;;;8.49;63.10;101113.75;5091529;28;19951;-62
2022/12/30 11:56:51;;;;;;;;;;;;;;;8.50;63.16;101110.22;5085327;28;20042;-63
2022/12/30 11:59:19;;;;;;;;;;;;;;;8.53;62.73;101110.09;5087116;28;19916;-63
2022/12/30 12:01:50;;;;;;;;;;;;;;;8.57;63.10;101105.56;5083456;28;19930;-62
2022/12/30 12:04:33;;;;;;;;;;;;;;;8.62;62.86;101100.13;5083083;28;19924;-61
2022/12/30 12:06:59;;;;;;;;;;;;;;;8.68;62.76;101115.59;5082112;28;19961;-61
2022/12/30 12:09:33;;;;;;;;;;;;;;;8.72;62.90;101108.44;5086554;28;19928;-59
2022/12/30 12:12:02;;;;;;;;;;;;;;;8.76;62.78;101105.59;5083685;28;19955;-62
2022/12/30 12:14:57;;;;;;;;;;;;;;;8.79;62.74;101094.97;5082088;28;19923;-60
2022/12/30 12:17:22;;;;;;;;;;;;;;;8.81;62.39;101094.91;5073264;28;19943;-63
2022/12/30 12:20:03;;;;;;;;;;;;;;;8.83;62.31;101088.69;5083765;28;20545;-62
2022/12/30 12:22:50;;;;;;;;;;;;;;;8.84;62.30;101082.50;5087731;28;19916;-59
2022/12/30 12:25:19;;;;;;;;;;;;;;;8.87;62.32;101083.28;5092428;28;19915;-57
2022/12/30 12:27:47;;;;;;;;;;;;;;;8.89;62.07;101068.31;5081202;28;19970;-59
2022/12/30 12:30:12;;;;;;;;;;;;;;;8.90;61.95;101064.78;5080841;28;19924;-63
2022/12/30 12:32:44;;;;;;;;;;;;;;;8.90;61.81;101070.88;5086389;28;19916;-60
2022/12/30 12:35:29;;;;;;;;;;;;;;;8.94;61.83;101068.97;5082966;28;19963;-57
2022/12/30 12:38:00;;;;;;;;;;;;;;;8.94;61.72;101063.72;5084039;28;20342;-58
2022/12/30 12:40:44;;;;;;;;;;;;;;;8.95;61.61;101062.78;5086445;28;19916;-59
2022/12/30 12:43:15;;;;;;;;;;;;;;;8.95;61.71;101068.03;5082801;28;19923;-65
2022/12/30 12:45:43;;;;;;;;;;;;;;;8.94;61.45;101064.56;5080213;28;19915;-61
2022/12/30 12:48:28;;;;;;;;;;;;;;;8.94;61.37;101072.44;5085143;28;19920;-65
2022/12/30 12:51:01;;;;;;;;;;;;;;;8.92;61.29;101057.69;5079466;28;19916;-64
2022/12/30 12:53:42;;;;;;;;;;;;;;;8.94;61.38;101064.56;5082107;28;20347;-60
2022/12/30 12:56:29;;;;;;;;;;;;;;;8.94;61.24;101066.34;5084577;28;19928;-61
2022/12/30 12:58:57;;;;;;;;;;;;;;;8.96;61.49;101059.25;5067577;28;19920;-64
2022/12/30 13:01:39;;;;;;;;;;;;;;;8.95;61.33;101068.88;5074532;28;19974;-66
2022/12/30 13:04:10;;;;;;;;;;;;;;;8.97;61.33;101069.66;5067343;28;19931;-62
2022/12/30 13:06:35;;;;;;;;;;;;;;;8.96;61.17;101067.13;5073224;28;20367;-64
2022/12/30 13:09:07;;;;;;;;;;;;;;;8.97;61.33;101061.78;5076449;28;19923;-62
2022/12/30 13:11:32;;;;;;;;;;;;;;;8.99;61.27;101061.75;5080185;28;19923;-62
2022/12/30 13:14:19;;;;;;;;;;;;;;;9.00;61.24;101066.91;5077822;28;19989;-59
2022/12/30 13:16:46;;;;;;;;;;;;;;;9.00;61.27;101060.78;5078588;28;19982;-64
2022/12/30 13:19:16;;;;;;;;;;;;;;;9.00;61.36;101059.03;5085070;28;20479;-61
2022/12/30 13:21:43;;;;;;;;;;;;;;;9.00;61.29;101066.03;5065443;28;19931;-63
2022/12/30 13:24:10;;;;;;;;;;;;;;;8.98;61.23;101063.50;5078864;28;19924;-65
2022/12/30 13:26:36;;;;;;;;;;;;;;;9.01;61.26;101059.88;5080561;28;19920;-60
2022/12/30 13:29:02;;;;;;;;;;;;;;;9.02;61.43;101058.94;5064615;28;20002;-62
2022/12/30 13:31:28;;;;;;;;;;;;;;;9.03;61.25;101052.78;5084200;28;19962;-62
2022/12/30 13:33:56;;;;;;;;;;;;;;;9.05;61.28;101053.56;5083662;28;19919;-62
2022/12/30 13:36:28;;;;;;;;;;;;;;;9.07;61.47;101046.47;5081433;28;19917;-64
2022/12/30 13:39:22;;;;;;;;;;;;;;;9.04;61.27;101041.34;5077547;28;19955;-61
2022/12/30 13:42:14;;;;;;;;;;;;;;;9.06;61.22;101034.28;5085603;28;19920;-62
2022/12/30 13:44:42;;;;;;;;;;;;;;;9.03;61.27;101025.69;5079927;28;20286;-62
2022/12/30 13:47:22;;;;;;;;;;;;;;;9.01;61.30;101031.00;5079553;28;19928;-59
2022/12/30 13:49:48;;;;;;;;;;;;;;;8.98;61.06;101028.53;5075274;28;19995;-64
2022/12/30 13:52:24;;;;;;;;;;;;;;;8.97;61.15;101021.59;5086608;28;20006;-62